sensor_id;sensor_type;location;lat;lon;timestamp;pressure;altitude;pressure_sealevel;temperature;humidity
50268;BME280;36153;50.960;6.220;2023-04-04T00:02:38;101842.72;;;5.04;49.50
50268;BME280;36153;50.960;6.220;2023-04-04T00:05:38;101839.97;;;5.01;49.57
50268;BME280;36153;50.960;6.220;2023-04-04T00:08:39;101842.91;;;5.07;49.47
50268;BME280;36153;50.960;6.220;2023-04-04T00:11:40;101840.78;;;5.00;49.72
50268;BME280;36153;50.960;6.220;2023-04-04T00:14:41;101842.06;;;4.91;49.97
50268;BME280;36153;50.960;6.220;2023-04-04T00:17:41;101838.47;;;4.89;50.18
50268;BME280;36153;50.960;6.220;2023-04-04T00:20:42;101839.13;;;4.85;50.25
50268;BME280;36153;50.960;6.220;2023-04-04T00:23:42;101835.38;;;4.80;50.51
50268;BME280;36153;50.960;6.220;2023-04-04T00:26:42;101833.78;;;4.82;50.74
50268;BME280;36153;50.960;6.220;2023-04-04T00:29:43;101835.38;;;4.80;50.46
50268;BME280;36153;50.960;6.220;2023-04-04T00:32:43;101836.38;;;4.82;50.22
50268;BME280;36153;50.960;6.220;2023-04-04T00:35:43;101834.66;;;4.83;50.17
50268;BME280;36153;50.960;6.220;2023-04-04T00:38:44;101830.06;;;4.77;50.41
50268;BME280;36153;50.960;6.220;2023-04-04T00:41:47;101837.00;;;4.78;50.14
50268;BME280;36153;50.960;6.220;2023-04-04T00:44:47;101836.53;;;4.85;49.77
50268;BME280;36153;50.960;6.220;2023-04-04T00:47:49;101835.66;;;4.85;49.51
50268;BME280;36153;50.960;6.220;2023-04-04T00:50:49;101839.38;;;4.90;49.03
50268;BME280;36153;50.960;6.220;2023-04-04T00:53:51;101844.28;;;4.85;48.92
50268;BME280;36153;50.960;6.220;2023-04-04T00:56:51;101843.41;;;4.85;48.97
50268;BME280;36153;50.960;6.220;2023-04-04T00:59:56;101840.66;;;4.82;48.88
50268;BME280;36153;50.960;6.220;2023-04-04T01:02:57;101837.16;;;4.81;48.74
50268;BME280;36153;50.960;6.220;2023-04-04T01:05:58;101836.19;;;4.79;49.03
50268;BME280;36153;50.960;6.220;2023-04-04T01:08:59;101836.00;;;4.76;48.90
50268;BME280;36153;50.960;6.220;2023-04-04T01:11:59;101840.44;;;4.78;49.14
50268;BME280;36153;50.960;6.220;2023-04-04T01:15:01;101838.34;;;4.71;49.21
50268;BME280;36153;50.960;6.220;2023-04-04T01:18:02;101846.78;;;4.69;49.63
50268;BME280;36153;50.960;6.220;2023-04-04T01:21:10;101847.06;;;4.58;50.09
50268;BME280;36153;50.960;6.220;2023-04-04T01:24:11;101838.34;;;4.56;50.08
50268;BME280;36153;50.960;6.220;2023-04-04T01:27:15;101839.78;;;4.51;50.80
50268;BME280;36153;50.960;6.220;2023-04-04T01:30:18;101847.53;;;4.51;50.85
50268;BME280;36153;50.960;6.220;2023-04-04T01:33:27;101846.59;;;4.51;50.97
50268;BME280;36153;50.960;6.220;2023-04-04T01:36:32;101840.50;;;4.49;51.10
50268;BME280;36153;50.960;6.220;2023-04-04T01:39:42;101842.63;;;4.41;51.45
50268;BME280;36153;50.960;6.220;2023-04-04T01:42:47;101844.06;;;4.36;51.47
50268;BME280;36153;50.960;6.220;2023-04-04T01:45:48;101842.09;;;4.32;51.57
50268;BME280;36153;50.960;6.220;2023-04-04T01:48:49;101841.91;;;4.28;51.74
50268;BME280;36153;50.960;6.220;2023-04-04T01:51:51;101840.75;;;4.23;51.58
50268;BME280;36153;50.960;6.220;2023-04-04T01:54:51;101843.50;;;4.26;51.52
50268;BME280;36153;50.960;6.220;2023-04-04T01:57:52;101835.69;;;4.25;51.52
50268;BME280;36153;50.960;6.220;2023-04-04T02:00:52;101835.94;;;4.30;51.24
50268;BME280;36153;50.960;6.220;2023-04-04T02:03:52;101828.69;;;4.37;50.81
50268;BME280;36153;50.960;6.220;2023-04-04T02:06:53;101827.13;;;4.41;50.78
50268;BME280;36153;50.960;6.220;2023-04-04T02:09:55;101821.81;;;4.38;50.56
50268;BME280;36153;50.960;6.220;2023-04-04T02:12:57;101826.72;;;4.33;50.91
50268;BME280;36153;50.960;6.220;2023-04-04T02:15:57;101817.72;;;4.26;50.95
50268;BME280;36153;50.960;6.220;2023-04-04T02:18:58;101828.84;;;4.25;50.87
50268;BME280;36153;50.960;6.220;2023-04-04T02:21:58;101824.28;;;4.21;51.14
50268;BME280;36153;50.960;6.220;2023-04-04T02:24:58;101818.97;;;4.18;51.22
50268;BME280;36153;50.960;6.220;2023-04-04T02:28:01;101817.19;;;4.17;51.32
50268;BME280;36153;50.960;6.220;2023-04-04T02:31:02;101822.53;;;4.20;51.68
50268;BME280;36153;50.960;6.220;2023-04-04T02:34:02;101814.69;;;4.19;51.79
50268;BME280;36153;50.960;6.220;2023-04-04T02:37:03;101816.13;;;4.14;51.93
50268;BME280;36153;50.960;6.220;2023-04-04T02:40:04;101816.38;;;4.03;52.00
50268;BME280;36153;50.960;6.220;2023-04-04T02:43:04;101805.97;;;4.02;52.64
50268;BME280;36153;50.960;6.220;2023-04-04T02:46:05;101807.56;;;3.85;52.64
50268;BME280;36153;50.960;6.220;2023-04-04T02:49:05;101806.13;;;3.75;53.00
50268;BME280;36153;50.960;6.220;2023-04-04T02:52:05;101797.03;;;3.67;53.22
50268;BME280;36153;50.960;6.220;2023-04-04T02:55:07;101806.16;;;3.62;53.44
50268;BME280;36153;50.960;6.220;2023-04-04T02:58:08;101797.81;;;3.51;53.91
50268;BME280;36153;50.960;6.220;2023-04-04T03:01:08;101793.25;;;3.47;54.09
50268;BME280;36153;50.960;6.220;2023-04-04T03:04:09;101801.50;;;3.41;54.25
50268;BME280;36153;50.960;6.220;2023-04-04T03:07:10;101794.38;;;3.37;54.54
50268;BME280;36153;50.960;6.220;2023-04-04T03:10:10;101804.56;;;3.35;54.38
50268;BME280;36153;50.960;6.220;2023-04-04T03:13:11;101802.72;;;3.33;54.57
50268;BME280;36153;50.960;6.220;2023-04-04T03:16:11;101797.16;;;3.27;54.41
50268;BME280;36153;50.960;6.220;2023-04-04T03:19:14;101801.72;;;3.31;54.77
50268;BME280;36153;50.960;6.220;2023-04-04T03:22:15;101804.28;;;3.31;54.66
50268;BME280;36153;50.960;6.220;2023-04-04T03:25:15;101804.28;;;3.31;54.74
50268;BME280;36153;50.960;6.220;2023-04-04T03:28:16;101803.41;;;3.30;54.84
50268;BME280;36153;50.960;6.220;2023-04-04T03:31:17;101813.78;;;3.32;54.74
50268;BME280;36153;50.960;6.220;2023-04-04T03:34:17;101809.22;;;3.41;54.54
50268;BME280;36153;50.960;6.220;2023-04-04T03:37:18;101802.47;;;3.43;54.21
50268;BME280;36153;50.960;6.220;2023-04-04T03:40:18;101800.59;;;3.40;54.19
50268;BME280;36153;50.960;6.220;2023-04-04T03:43:19;101814.38;;;3.41;54.10
50268;BME280;36153;50.960;6.220;2023-04-04T03:46:19;101816.22;;;3.44;54.05
50268;BME280;36153;50.960;6.220;2023-04-04T03:49:20;101815.94;;;3.39;54.20
50268;BME280;36153;50.960;6.220;2023-04-04T03:52:20;101814.56;;;3.44;54.10
50268;BME280;36153;50.960;6.220;2023-04-04T03:55:21;101809.41;;;3.44;53.78
50268;BME280;36153;50.960;6.220;2023-04-04T03:58:22;101809.41;;;3.44;53.56
50268;BME280;36153;50.960;6.220;2023-04-04T04:01:22;101808.31;;;3.40;53.59
50268;BME280;36153;50.960;6.220;2023-04-04T04:04:23;101805.66;;;3.39;53.44
50268;BME280;36153;50.960;6.220;2023-04-04T04:07:23;101805.06;;;3.30;53.35
50268;BME280;36153;50.960;6.220;2023-04-04T04:10:23;101807.47;;;3.27;53.44
50268;BME280;36153;50.960;6.220;2023-04-04T04:13:24;101813.31;;;3.24;53.83
50268;BME280;36153;50.960;6.220;2023-04-04T04:16:24;101805.31;;;3.19;53.91
50268;BME280;36153;50.960;6.220;2023-04-04T04:19:24;101808.66;;;3.18;53.90
50268;BME280;36153;50.960;6.220;2023-04-04T04:22:25;101809.56;;;3.19;53.89
50268;BME280;36153;50.960;6.220;2023-04-04T04:25:25;101808.75;;;3.20;54.01
50268;BME280;36153;50.960;6.220;2023-04-04T04:28:26;101805.50;;;3.22;53.83
50268;BME280;36153;50.960;6.220;2023-04-04T04:31:26;101808.66;;;3.18;53.78
50268;BME280;36153;50.960;6.220;2023-04-04T04:34:27;101800.56;;;3.12;53.77
50268;BME280;36153;50.960;6.220;2023-04-04T04:37:27;101800.19;;;3.06;53.94
50268;BME280;36153;50.960;6.220;2023-04-04T04:40:27;101795.03;;;3.06;54.02
50268;BME280;36153;50.960;6.220;2023-04-04T04:43:28;101794.66;;;3.00;54.33
50268;BME280;36153;50.960;6.220;2023-04-04T04:46:28;101796.03;;;2.95;54.79
50268;BME280;36153;50.960;6.220;2023-04-04T04:49:28;101793.47;;;2.95;55.13
50268;BME280;36153;50.960;6.220;2023-04-04T04:52:29;101788.94;;;2.90;55.42
50268;BME280;36153;50.960;6.220;2023-04-04T04:55:31;101788.03;;;2.90;55.36
50268;BME280;36153;50.960;6.220;2023-04-04T04:58:31;101800.22;;;2.93;55.15
50268;BME280;36153;50.960;6.220;2023-04-04T05:01:32;101800.91;;;2.90;55.04
50268;BME280;36153;50.960;6.220;2023-04-04T05:04:32;101802.78;;;2.93;55.03
50268;BME280;36153;50.960;6.220;2023-04-04T05:07:32;101804.34;;;2.90;54.84
50268;BME280;36153;50.960;6.220;2023-04-04T05:10:33;101805.16;;;2.89;54.81
50268;BME280;36153;50.960;6.220;2023-04-04T05:13:33;101798.25;;;2.88;54.63
50268;BME280;36153;50.960;6.220;2023-04-04T05:16:34;101801.69;;;2.89;54.79
50268;BME280;36153;50.960;6.220;2023-04-04T05:19:34;101809.50;;;2.90;54.65
50268;BME280;36153;50.960;6.220;2023-04-04T05:22:35;101809.91;;;2.97;54.64
50268;BME280;36153;50.960;6.220;2023-04-04T05:25:35;101815.25;;;3.00;54.49
50268;BME280;36153;50.960;6.220;2023-04-04T05:28:36;101819.78;;;3.04;54.47
50268;BME280;36153;50.960;6.220;2023-04-04T05:31:36;101815.91;;;3.11;54.49
50268;BME280;36153;50.960;6.220;2023-04-04T05:34:37;101815.31;;;3.15;54.26
50268;BME280;36153;50.960;6.220;2023-04-04T05:37:38;101812.34;;;3.22;54.19
50268;BME280;36153;50.960;6.220;2023-04-04T05:40:39;101817.94;;;3.30;53.68
50268;BME280;36153;50.960;6.220;2023-04-04T05:43:39;101815.06;;;3.38;53.57
50268;BME280;36153;50.960;6.220;2023-04-04T05:46:40;101818.09;;;3.46;53.27
50268;BME280;36153;50.960;6.220;2023-04-04T05:49:40;101829.31;;;3.47;53.46
50268;BME280;36153;50.960;6.220;2023-04-04T05:52:41;101831.16;;;3.49;53.51
50268;BME280;36153;50.960;6.220;2023-04-04T05:55:41;101840.53;;;3.62;53.79
50268;BME280;36153;50.960;6.220;2023-04-04T05:58:42;101836.84;;;3.72;53.76
50268;BME280;36153;50.960;6.220;2023-04-04T06:01:44;101841.41;;;3.91;53.61
50268;BME280;36153;50.960;6.220;2023-04-04T06:04:54;101845.97;;;4.10;53.57
50268;BME280;36153;50.960;6.220;2023-04-04T06:07:57;101851.16;;;4.25;53.36
50268;BME280;36153;50.960;6.220;2023-04-04T06:10:58;101842.81;;;4.44;53.01
50268;BME280;36153;50.960;6.220;2023-04-04T06:14:02;101836.59;;;4.55;52.15
50268;BME280;36153;50.960;6.220;2023-04-04T06:17:03;101840.19;;;4.74;51.84
50268;BME280;36153;50.960;6.220;2023-04-04T06:20:05;101838.94;;;4.97;51.18
50268;BME280;36153;50.960;6.220;2023-04-04T06:23:05;101840.81;;;5.16;51.02
50268;BME280;36153;50.960;6.220;2023-04-04T06:26:06;101837.63;;;5.37;50.49
50268;BME280;36153;50.960;6.220;2023-04-04T06:29:07;101848.94;;;5.39;50.18
50268;BME280;36153;50.960;6.220;2023-04-04T06:32:08;101848.63;;;5.49;49.58
50268;BME280;36153;50.960;6.220;2023-04-04T06:35:11;101850.81;;;5.58;49.51
50268;BME280;36153;50.960;6.220;2023-04-04T06:38:12;101849.59;;;5.68;49.05
50268;BME280;36153;50.960;6.220;2023-04-04T06:41:13;101851.97;;;5.96;48.75
50268;BME280;36153;50.960;6.220;2023-04-04T06:44:13;101854.22;;;6.06;48.64
50268;BME280;36153;50.960;6.220;2023-04-04T06:47:23;101857.69;;;6.23;49.23
50268;BME280;36153;50.960;6.220;2023-04-04T06:50:24;101863.03;;;6.26;48.98
50268;BME280;36153;50.960;6.220;2023-04-04T06:53:25;101863.69;;;6.22;48.81
50268;BME280;36153;50.960;6.220;2023-04-04T06:56:25;101868.06;;;6.41;49.01
50268;BME280;36153;50.960;6.220;2023-04-04T06:59:26;101875.00;;;6.59;48.53
50268;BME280;36153;50.960;6.220;2023-04-04T07:02:27;101879.81;;;6.87;48.10
50268;BME280;36153;50.960;6.220;2023-04-04T07:05:28;101888.78;;;6.94;47.24
50268;BME280;36153;50.960;6.220;2023-04-04T07:08:29;101885.81;;;7.04;46.49
50268;BME280;36153;50.960;6.220;2023-04-04T07:15:55;101876.56;;;7.09;44.29
50268;BME280;36153;50.960;6.220;2023-04-04T07:19:00;101882.47;;;7.25;44.87
50268;BME280;36153;50.960;6.220;2023-04-04T07:22:06;101887.09;;;7.50;44.78
50268;BME280;36153;50.960;6.220;2023-04-04T07:25:07;101886.97;;;7.66;44.36
50268;BME280;36153;50.960;6.220;2023-04-04T07:28:43;101874.56;;;7.79;44.24
50268;BME280;36153;50.960;6.220;2023-04-04T07:32:12;101869.53;;;8.01;44.13
50268;BME280;36153;50.960;6.220;2023-04-04T07:39:29;101861.81;;;8.44;43.60
50268;BME280;36153;50.960;6.220;2023-04-04T07:42:30;101866.88;;;8.60;42.42
50268;BME280;36153;50.960;6.220;2023-04-04T08:03:08;101847.72;;;9.23;39.73
50268;BME280;36153;50.960;6.220;2023-04-04T08:06:08;101852.38;;;9.32;40.14
50268;BME280;36153;50.960;6.220;2023-04-04T08:09:09;101857.19;;;9.44;39.12
50268;BME280;36153;50.960;6.220;2023-04-04T08:12:10;101857.63;;;9.33;39.37
50268;BME280;36153;50.960;6.220;2023-04-04T08:15:11;101862.00;;;9.57;37.76
50268;BME280;36153;50.960;6.220;2023-04-04T08:18:11;101851.53;;;9.80;39.34
50268;BME280;36153;50.960;6.220;2023-04-04T08:21:40;101846.06;;;9.96;38.17
50268;BME280;36153;50.960;6.220;2023-04-04T08:24:48;101850.88;;;10.10;38.78
50268;BME280;36153;50.960;6.220;2023-04-04T08:27:48;101855.69;;;10.23;37.42
50268;BME280;36153;50.960;6.220;2023-04-04T08:30:51;101852.84;;;9.91;37.27
50268;BME280;36153;50.960;6.220;2023-04-04T08:33:52;101857.66;;;10.30;36.94
50268;BME280;36153;50.960;6.220;2023-04-04T08:36:53;101853.03;;;10.46;36.06
50268;BME280;36153;50.960;6.220;2023-04-04T08:39:53;101853.34;;;10.55;37.18
50268;BME280;36153;50.960;6.220;2023-04-04T08:42:55;101854.03;;;10.76;36.04
50268;BME280;36153;50.960;6.220;2023-04-04T08:45:57;101858.31;;;10.74;36.24
50268;BME280;36153;50.960;6.220;2023-04-04T08:48:59;101857.16;;;10.93;36.90
50268;BME280;36153;50.960;6.220;2023-04-04T08:52:01;101852.69;;;11.17;34.86
50268;BME280;36153;50.960;6.220;2023-04-04T08:55:04;101855.47;;;11.23;35.01
50268;BME280;36153;50.960;6.220;2023-04-04T08:58:08;101853.72;;;11.22;34.88
50268;BME280;36153;50.960;6.220;2023-04-04T09:01:11;101853.25;;;11.06;35.55
50268;BME280;36153;50.960;6.220;2023-04-04T09:04:11;101858.69;;;11.14;34.74
50268;BME280;36153;50.960;6.220;2023-04-04T09:07:11;101858.31;;;11.31;35.73
50268;BME280;36153;50.960;6.220;2023-04-04T09:10:13;101858.91;;;11.51;34.73
50268;BME280;36153;50.960;6.220;2023-04-04T09:13:14;101858.72;;;11.44;35.70
50268;BME280;36153;50.960;6.220;2023-04-04T09:16:15;101861.06;;;11.66;35.02
50268;BME280;36153;50.960;6.220;2023-04-04T09:19:16;101860.34;;;11.41;34.34
50268;BME280;36153;50.960;6.220;2023-04-04T09:22:16;101858.34;;;11.61;34.92
50268;BME280;36153;50.960;6.220;2023-04-04T09:25:17;101855.00;;;11.65;35.22
50268;BME280;36153;50.960;6.220;2023-04-04T09:28:18;101850.38;;;11.26;34.26
50268;BME280;36153;50.960;6.220;2023-04-04T09:31:19;101851.88;;;11.48;34.03
50268;BME280;36153;50.960;6.220;2023-04-04T09:34:19;101850.41;;;11.88;34.64
50268;BME280;36153;50.960;6.220;2023-04-04T09:37:20;101850.28;;;12.14;35.44
50268;BME280;36153;50.960;6.220;2023-04-04T09:40:21;101844.66;;;12.32;34.22
50268;BME280;36153;50.960;6.220;2023-04-04T09:43:26;101840.63;;;12.11;33.47
50268;BME280;36153;50.960;6.220;2023-04-04T09:46:29;101846.81;;;12.15;34.16
50268;BME280;36153;50.960;6.220;2023-04-04T09:49:31;101846.72;;;12.12;33.84
50268;BME280;36153;50.960;6.220;2023-04-04T09:52:32;101848.91;;;12.28;33.80
50268;BME280;36153;50.960;6.220;2023-04-04T09:55:35;101844.72;;;12.35;34.16
50268;BME280;36153;50.960;6.220;2023-04-04T09:58:37;101842.19;;;12.38;34.01
50268;BME280;36153;50.960;6.220;2023-04-04T10:01:37;101844.03;;;12.42;33.45
50268;BME280;36153;50.960;6.220;2023-04-04T10:04:38;101838.94;;;12.84;35.18
50268;BME280;36153;50.960;6.220;2023-04-04T10:07:39;101838.53;;;12.65;32.49
50268;BME280;36153;50.960;6.220;2023-04-04T10:13:51;101828.78;;;12.59;32.54
50268;BME280;36153;50.960;6.220;2023-04-04T10:16:55;101824.88;;;12.78;32.64
50268;BME280;36153;50.960;6.220;2023-04-04T10:19:59;101820.63;;;13.22;33.11
50268;BME280;36153;50.960;6.220;2023-04-04T10:23:00;101817.66;;;13.44;32.34
50268;BME280;36153;50.960;6.220;2023-04-04T10:26:01;101815.31;;;13.17;32.70
50268;BME280;36153;50.960;6.220;2023-04-04T10:29:02;101817.66;;;13.05;32.14
50268;BME280;36153;50.960;6.220;2023-04-04T10:32:05;101824.47;;;13.36;33.92
50268;BME280;36153;50.960;6.220;2023-04-04T10:35:07;101815.16;;;13.51;31.94
50268;BME280;36153;50.960;6.220;2023-04-04T10:38:11;101816.78;;;13.44;31.46
50268;BME280;36153;50.960;6.220;2023-04-04T10:41:12;101812.63;;;13.14;31.72
50268;BME280;36153;50.960;6.220;2023-04-04T10:44:28;101811.72;;;13.52;30.18
50268;BME280;36153;50.960;6.220;2023-04-04T10:47:29;101811.84;;;13.59;31.24
50268;BME280;36153;50.960;6.220;2023-04-04T10:50:30;101800.31;;;13.94;31.30
50268;BME280;36153;50.960;6.220;2023-04-04T10:53:33;101803.25;;;13.66;29.98
50268;BME280;36153;50.960;6.220;2023-04-04T10:56:35;101802.16;;;13.54;30.61
50268;BME280;36153;50.960;6.220;2023-04-04T10:59:57;101797.50;;;13.85;29.45
50268;BME280;36153;50.960;6.220;2023-04-04T11:02:59;101786.38;;;13.96;31.20
50268;BME280;36153;50.960;6.220;2023-04-04T11:06:00;101778.84;;;14.15;29.89
50268;BME280;36153;50.960;6.220;2023-04-04T11:09:01;101770.41;;;14.33;30.84
50268;BME280;36153;50.960;6.220;2023-04-04T11:12:08;101775.31;;;14.65;32.70
50268;BME280;36153;50.960;6.220;2023-04-04T11:15:11;101766.91;;;14.31;30.01
50268;BME280;36153;50.960;6.220;2023-04-04T11:18:13;101760.44;;;14.62;31.45
50268;BME280;36153;50.960;6.220;2023-04-04T11:21:15;101759.94;;;14.90;29.76
50268;BME280;36153;50.960;6.220;2023-04-04T11:24:17;101758.97;;;14.81;30.39
50268;BME280;36153;50.960;6.220;2023-04-04T11:27:18;101758.78;;;14.69;28.69
50268;BME280;36153;50.960;6.220;2023-04-04T11:30:18;101762.97;;;14.59;28.38
50268;BME280;36153;50.960;6.220;2023-04-04T11:33:25;101766.78;;;14.77;28.59
50268;BME280;36153;50.960;6.220;2023-04-04T11:39:38;101753.28;;;14.54;28.60
50268;BME280;36153;50.960;6.220;2023-04-04T11:42:51;101754.75;;;14.94;28.56
50268;BME280;36153;50.960;6.220;2023-04-04T11:45:52;101752.75;;;14.76;28.78
50268;BME280;36153;50.960;6.220;2023-04-04T11:48:52;101753.47;;;14.63;28.94
50268;BME280;36153;50.960;6.220;2023-04-04T11:51:53;101747.50;;;14.73;29.91
50268;BME280;36153;50.960;6.220;2023-04-04T11:54:53;101743.44;;;14.97;28.94
50268;BME280;36153;50.960;6.220;2023-04-04T11:57:53;101745.63;;;14.64;30.75
50268;BME280;36153;50.960;6.220;2023-04-04T12:00:57;101740.25;;;14.58;30.64
50268;BME280;36153;50.960;6.220;2023-04-04T12:03:58;101735.47;;;14.31;29.55
50268;BME280;36153;50.960;6.220;2023-04-04T12:07:00;101730.59;;;14.56;30.79
50268;BME280;36153;50.960;6.220;2023-04-04T12:10:02;101731.28;;;15.02;26.58
50268;BME280;36153;50.960;6.220;2023-04-04T12:13:07;101729.53;;;15.02;28.17
50268;BME280;36153;50.960;6.220;2023-04-04T12:16:08;101727.31;;;15.36;28.46
50268;BME280;36153;50.960;6.220;2023-04-04T12:19:08;101718.81;;;15.59;29.14
50268;BME280;36153;50.960;6.220;2023-04-04T12:22:08;101721.56;;;15.70;28.85
50268;BME280;36153;50.960;6.220;2023-04-04T12:25:09;101706.13;;;16.04;28.88
50268;BME280;36153;50.960;6.220;2023-04-04T12:28:10;101700.00;;;16.07;26.85
50268;BME280;36153;50.960;6.220;2023-04-04T12:31:12;101705.81;;;15.73;29.41
50268;BME280;36153;50.960;6.220;2023-04-04T12:34:23;101694.56;;;15.82;27.06
50268;BME280;36153;50.960;6.220;2023-04-04T12:37:27;101696.47;;;16.00;29.02
50268;BME280;36153;50.960;6.220;2023-04-04T12:40:31;101693.91;;;16.09;28.47
50268;BME280;36153;50.960;6.220;2023-04-04T12:43:31;101692.13;;;16.03;27.05
50268;BME280;36153;50.960;6.220;2023-04-04T12:46:40;101694.97;;;16.39;28.07
50268;BME280;36153;50.960;6.220;2023-04-04T12:49:42;101696.22;;;17.03;27.46
50268;BME280;36153;50.960;6.220;2023-04-04T12:52:43;101690.91;;;16.89;26.59
50268;BME280;36153;50.960;6.220;2023-04-04T12:55:45;101688.94;;;16.54;27.74
50268;BME280;36153;50.960;6.220;2023-04-04T12:58:48;101683.72;;;16.62;27.77
50268;BME280;36153;50.960;6.220;2023-04-04T13:01:49;101675.94;;;16.80;28.04
50268;BME280;36153;50.960;6.220;2023-04-04T13:04:53;101674.09;;;16.61;26.63
50268;BME280;36153;50.960;6.220;2023-04-04T13:08:07;101660.72;;;16.19;25.33
50268;BME280;36153;50.960;6.220;2023-04-04T13:11:07;101657.41;;;16.55;27.78
50268;BME280;36153;50.960;6.220;2023-04-04T13:14:08;101640.78;;;16.63;25.92
50268;BME280;36153;50.960;6.220;2023-04-04T13:17:08;101648.78;;;16.84;27.96
50268;BME280;36153;50.960;6.220;2023-04-04T13:20:09;101647.03;;;16.86;27.44
50268;BME280;36153;50.960;6.220;2023-04-04T13:23:10;101641.84;;;17.02;26.46
50268;BME280;36153;50.960;6.220;2023-04-04T13:26:11;101640.16;;;17.13;26.67
50268;BME280;36153;50.960;6.220;2023-04-04T13:29:11;101629.66;;;17.55;25.94
50268;BME280;36153;50.960;6.220;2023-04-04T13:32:12;101627.88;;;17.09;26.72
50268;BME280;36153;50.960;6.220;2023-04-04T13:35:12;101630.50;;;17.15;26.68
50268;BME280;36153;50.960;6.220;2023-04-04T13:38:14;101623.25;;;16.60;25.76
50268;BME280;36153;50.960;6.220;2023-04-04T13:41:15;101624.94;;;16.43;26.38
50268;BME280;36153;50.960;6.220;2023-04-04T13:44:15;101608.34;;;16.54;24.47
50268;BME280;36153;50.960;6.220;2023-04-04T13:47:15;101613.78;;;16.95;26.73
50268;BME280;36153;50.960;6.220;2023-04-04T13:50:51;101599.81;;;17.22;23.29
50268;BME280;36153;50.960;6.220;2023-04-04T13:53:54;101601.59;;;17.40;25.74
50268;BME280;36153;50.960;6.220;2023-04-04T13:56:54;101598.94;;;17.48;25.37
50268;BME280;36153;50.960;6.220;2023-04-04T13:59:55;101598.94;;;17.77;25.67
50268;BME280;36153;50.960;6.220;2023-04-04T14:02:56;101590.19;;;17.70;25.38
50268;BME280;36153;50.960;6.220;2023-04-04T14:05:57;101595.44;;;17.75;24.46
50268;BME280;36153;50.960;6.220;2023-04-04T14:08:57;101590.19;;;17.50;24.88
50268;BME280;36153;50.960;6.220;2023-04-04T14:11:58;101591.06;;;17.91;24.77
50268;BME280;36153;50.960;6.220;2023-04-04T14:14:58;101590.19;;;17.43;25.37
50268;BME280;36153;50.960;6.220;2023-04-04T14:17:58;101581.41;;;17.36;25.61
50268;BME280;36153;50.960;6.220;2023-04-04T14:21:00;101585.72;;;16.94;26.96
50268;BME280;36153;50.960;6.220;2023-04-04T14:24:01;101585.53;;;16.49;26.01
50268;BME280;36153;50.960;6.220;2023-04-04T14:27:02;101573.13;;;16.18;25.78
50268;BME280;36153;50.960;6.220;2023-04-04T14:30:03;101571.41;;;16.27;26.45
50268;BME280;36153;50.960;6.220;2023-04-04T14:33:03;101561.03;;;16.51;26.10
50268;BME280;36153;50.960;6.220;2023-04-04T14:36:03;101561.91;;;16.53;26.20
50268;BME280;36153;50.960;6.220;2023-04-04T14:39:04;101549.53;;;16.23;25.72
50268;BME280;36153;50.960;6.220;2023-04-04T14:42:04;101553.09;;;16.41;25.75
50268;BME280;36153;50.960;6.220;2023-04-04T14:45:05;101553.94;;;16.29;25.86
50268;BME280;36153;50.960;6.220;2023-04-04T14:48:07;101549.63;;;16.48;25.48
50268;BME280;36153;50.960;6.220;2023-04-04T14:51:09;101541.75;;;16.55;25.81
50268;BME280;36153;50.960;6.220;2023-04-04T14:54:10;101539.13;;;16.54;24.98
50268;BME280;36153;50.960;6.220;2023-04-04T14:57:12;101541.84;;;16.88;25.62
50268;BME280;36153;50.960;6.220;2023-04-04T15:00:14;101539.94;;;16.41;25.22
50268;BME280;36153;50.960;6.220;2023-04-04T15:03:20;101541.63;;;16.21;25.18
50268;BME280;36153;50.960;6.220;2023-04-04T15:06:21;101535.69;;;16.73;25.32
50268;BME280;36153;50.960;6.220;2023-04-04T15:09:21;101529.66;;;17.13;25.03
50268;BME280;36153;50.960;6.220;2023-04-04T15:12:22;101524.34;;;16.93;25.03
50268;BME280;36153;50.960;6.220;2023-04-04T15:15:22;101526.06;;;16.86;25.29
50268;BME280;36153;50.960;6.220;2023-04-04T15:18:23;101529.56;;;16.75;25.06
50268;BME280;36153;50.960;6.220;2023-04-04T15:21:23;101524.38;;;17.38;23.86
50268;BME280;36153;50.960;6.220;2023-04-04T15:24:24;101517.38;;;17.14;24.76
50268;BME280;36153;50.960;6.220;2023-04-04T15:27:24;101516.50;;;17.33;25.36
50268;BME280;36153;50.960;6.220;2023-04-04T15:30:25;101518.22;;;17.44;24.08
50268;BME280;36153;50.960;6.220;2023-04-04T15:33:26;101513.84;;;17.38;24.97
50268;BME280;36153;50.960;6.220;2023-04-04T15:36:27;101517.31;;;17.75;24.64
50268;BME280;36153;50.960;6.220;2023-04-04T15:39:27;101515.56;;;17.91;24.69
50268;BME280;36153;50.960;6.220;2023-04-04T15:42:28;101508.50;;;17.83;24.41
50268;BME280;36153;50.960;6.220;2023-04-04T15:45:28;101506.84;;;16.97;24.88
50268;BME280;36153;50.960;6.220;2023-04-04T15:48:29;101498.97;;;17.11;25.17
50268;BME280;36153;50.960;6.220;2023-04-04T15:51:30;101502.47;;;17.19;24.90
50268;BME280;36153;50.960;6.220;2023-04-04T15:54:30;101505.97;;;17.16;24.91
50268;BME280;36153;50.960;6.220;2023-04-04T15:57:32;101503.31;;;16.95;26.19
50268;BME280;36153;50.960;6.220;2023-04-04T16:00:32;101501.50;;;16.69;25.82
50268;BME280;36153;50.960;6.220;2023-04-04T16:03:33;101495.34;;;16.59;26.27
50268;BME280;36153;50.960;6.220;2023-04-04T16:06:33;101499.59;;;16.20;26.01
50268;BME280;36153;50.960;6.220;2023-04-04T16:09:33;101491.81;;;16.55;26.82
50268;BME280;36153;50.960;6.220;2023-04-04T16:12:34;101493.56;;;16.52;25.90
50268;BME280;36153;50.960;6.220;2023-04-04T16:15:34;101483.91;;;16.40;26.03
50268;BME280;36153;50.960;6.220;2023-04-04T16:18:34;101479.59;;;16.73;25.16
50268;BME280;36153;50.960;6.220;2023-04-04T16:21:36;101475.25;;;17.06;25.15
50268;BME280;36153;50.960;6.220;2023-04-04T16:24:37;101477.91;;;17.20;24.26
50268;BME280;36153;50.960;6.220;2023-04-04T16:27:37;101474.25;;;16.30;25.93
50268;BME280;36153;50.960;6.220;2023-04-04T16:30:37;101476.72;;;15.99;26.37